Impacts METAR Board
IDs:

KMDW - Chicago/Midway Intl, IL, US

Updated at: 1300 UTC 25 Jun 2019
Potential Impact None Slight Moderate High
Time 25/01Z 25/02Z 25/03Z 25/04Z 25/05Z 25/06Z 25/07Z 25/08Z 25/09Z 25/10Z 25/11Z 25/12Z 25/13Z
Temp74 71 69 68 68 67 65 65 65 63 64 66 69
Dewpt56 58 60 61 60 59 60 60 60 59 59 60 61
Altim29.67 29.70 29.72 29.74 29.74 29.76 29.77 29.78 29.80 29.82 29.84 29.85 29.87
VIS10 10 10 10 10 10 10 10 10 10 10 10 10
CIG-- -- -- -- -- -- -- -- -- -- -- -- --
CoverSCTFEWFEWCLRCLRFEWCLRCLRCLRCLRFEWCLRCLR
FltCatVFRVFRVFRVFRVFRVFRVFRVFRVFRVFRVFRVFRVFR
WX--------------------------
WDir260260250240250240230240230240240230260
WSpd16 11 8 8 9 7 6 7 7 5 5 7 9
WGst23 19 -- -- -- -- -- -- -- -- -- -- --
Raw hourly METARs
KMDW 250053Z 26016G23KT 10SM FEW041 FEW060 SCT250 23/13 A2967 RMK AO2 PK WND 25030/0005 SLP038 CB DSNT NE-E T02330133 $
KMDW 250153Z 26011G19KT 10SM FEW040 FEW250 22/14 A2970 RMK AO2 SLP050 CB DSNT NW-NE T02170144 $
KMDW 250253Z 25008KT 10SM FEW040 21/16 A2972 RMK AO2 SLP058 FRQ LTGIC DSNT NE CB DSNT NE T02060156 51032 $
KMDW 250353Z 24008KT 10SM CLR 20/16 A2974 RMK AO2 SLP062 T02000161 $
KMDW 250453Z 25009KT 10SM CLR 20/16 A2974 RMK AO2 SLP064 T02000156 $
KMDW 250553Z 24007KT 10SM FEW060 19/15 A2976 RMK AO2 SLP069 T01940150 10250 20194 402610194 53010 $
KMDW 250653Z 23006KT 10SM CLR 18/16 A2977 RMK AO2 SLP073 T01830156 $
KMDW 250753Z 24007KT 10SM CLR 18/16 A2978 RMK AO2 SLP079 T01830156 $
KMDW 250853Z 23007KT 10SM CLR 18/16 A2980 RMK AO2 SLP081 T01830156 52013 $
KMDW 250953Z 24005KT 10SM CLR 17/15 A2982 RMK AO2 SLP091 T01720150 $
KMDW 251053Z 24005KT 10SM FEW120 18/15 A2984 RMK AO2 SLP096 T01780150 $
KMDW 251153Z 23007KT 10SM CLR 19/16 A2985 RMK AO2 SLP100 70005 T01890156 10194 20172 51019 $
KMDW 251253Z 26009KT 10SM CLR 21/16 A2987 RMK AO2 SLP107 T02060161



Page loaded:  13:40 UTC  |   06:40 AM Pacific  |   07:40 AM Mountain  |   08:40 AM Central  |   09:40 AM Eastern

 

ADVISORIES

FORECASTS

FORECASTS

OBSERVATIONS

USER TOOLS

ABOUT US